Latest Weather Observations for Nhill Aerodrome

IDV60801

Issued at 4:05 pm EDT Sunday 26 October 2014 (issued every 30 minutes, with the page automatically refreshed every 10 minutes)

About weather observations | Map of weather stations | Latest weather observations for VIC | Other Formats
Station Details ID: 078015 Name: NHILL AERODROME Lat: -36.31 Lon: 141.65 Height: 138.9 m
Data from the previous 72 hours. | See also: Recent months at Nhill Aerodrome
Date/Time
EDT
Temp
°C
App
Temp
°C
Dew
Point
Rel
Hum
%
Delta-T
°C
Wind Press
QNH
hPa
Press
MSL
hPa
Rain
since 9 am
mm
Dir
 
Spd
km/h
Gust
km/h
Spd
kts
Gust
kts
26/04:00pm 26.2 21.9 7.7 31 9.9 NNW 20 28 11 15 1009.8 1009.7 0.0
26/03:30pm 26.0 21.9 6.1 28 10.4 NNW 17 26 9 14 1010.0 1009.9 0.0
26/03:00pm 25.3 22.1 7.0 31 9.7 N 13 22 7 12 1010.6 1010.5 0.0
26/02:30pm 24.8 21.0 7.4 33 9.2 N 17 26 9 14 1011.2 1011.1 0.0
26/02:00pm 24.7 20.9 7.4 33 9.2 N 17 30 9 16 1011.6 1011.5 0.0
26/01:30pm 23.4 20.7 7.5 36 8.4 N 11 20 6 11 1012.0 1011.9 0.0
26/01:00pm 22.1 20.5 8.9 43 7.1 N 7 13 4 7 1012.3 1012.2 0.0
26/12:30pm 21.9 20.5 9.4 45 6.7 SW 7 11 4 6 1012.7 1012.6 0.0
26/12:00pm 20.6 19.3 9.8 50 5.8 WSW 7 15 4 8 1013.2 1013.0 0.0
26/11:30am 19.7 17.3 9.9 53 5.3 NW 13 20 7 11 1014.1 1014.0 0.0
26/11:00am 19.8 16.1 10.2 54 5.2 WNW 20 30 11 16 1015.2 1015.1 0.0
26/10:30am 18.8 15.1 10.1 57 4.7 WNW 20 35 11 19 1015.1 1015.0 0.0
26/10:24am 18.8 14.7 10.1 57 4.7 WNW 22 35 12 19 1015.6 1015.5 0.0
26/10:00am 18.8 17.5 10.1 57 4.7 NNW 7 11 4 6 1013.6 1013.5 0.0
26/09:30am 16.9 15.5 9.6 62 3.8 NW 7 11 4 6 1013.6 1013.5 0.0
26/09:00am 15.2 14.6 8.9 66 3.2 N 2 6 1 3 1013.7 1013.6 0.0
26/08:30am 13.7 13.5 9.0 73 2.4 CALM 0 4 0 2 1013.6 1013.5 0.0
26/08:00am 11.7 11.4 8.6 81 1.5 CALM 0 0 0 0 1013.3 1013.1 0.0
26/07:30am 10.8 9.8 8.7 87 1.0 SSE 4 9 2 5 1013.0 1012.9 0.0
26/07:00am 8.7 6.3 6.8 88 0.9 SE 9 11 5 6 1012.9 1012.8 0.0
26/06:30am 8.2 5.6 6.2 87 0.9 SSE 9 11 5 6 1012.7 1012.6 0.0
26/06:00am 8.7 6.2 6.5 86 1.0 S 9 11 5 6 1012.9 1012.8 0.0
26/05:30am 8.7 6.1 6.3 85 1.1 SW 9 9 5 5 1013.0 1012.9 0.0
26/05:00am 9.4 8.4 7.2 86 1.0 SW 2 6 1 3 1013.2 1013.0 0.0
26/04:30am 8.7 6.1 6.0 83 1.2 SW 9 11 5 6 1012.9 1012.8 0.0
26/04:00am 10.1 8.3 7.3 83 1.3 SE 6 7 3 4 1012.9 1012.8 0.0
26/03:30am 10.7 8.9 7.9 83 1.4 SSE 7 9 4 5 1012.7 1012.6 0.0
26/03:00am 11.0 9.4 8.0 82 1.5 S 6 7 3 4 1013.2 1013.0 0.0
26/02:30am 11.2 9.4 8.1 81 1.5 S 7 9 4 5 1013.9 1013.8 0.0
26/02:00am 11.8 10.1 8.3 79 1.7 S 7 9 4 5 1014.3 1014.2 0.0
26/01:30am 12.8 11.5 9.1 78 1.9 SSE 6 7 3 4 1014.3 1014.2 0.0
26/01:00am 13.0 10.3 9.1 77 2.0 S 13 13 7 7 1014.4 1014.3 0.0
26/12:30am 13.0 11.0 8.5 74 2.3 S 9 11 5 6 1014.7 1014.6 0.0
26/12:00am 14.3 12.1 9.3 72 2.6 S 11 13 6 7 1014.5 1014.4 0.0
 
Date/Time
EDT
Temp
°C
App
Temp
°C
Dew
Point
Rel
Hum
%
Delta-T
°C
Wind Press
QNH
hPa
Press
MSL
hPa
Rain
since 9 am
mm
Dir
 
Spd
km/h
Gust
km/h
Spd
kts
Gust
kts
25/11:30pm 15.0 12.4 9.4 69 2.9 SSE 13 15 7 8 1014.6 1014.5 0.0
25/11:00pm 15.9 13.0 9.8 67 3.2 SSE 15 17 8 9 1014.5 1014.4 0.0
25/10:30pm 17.0 14.2 10.1 64 3.7 SSE 15 19 8 10 1014.7 1014.6 0.0
25/10:00pm 18.2 15.0 10.1 59 4.3 S 17 22 9 12 1014.9 1014.8 0.0
25/09:30pm 19.4 15.7 9.6 53 5.2 S 19 22 10 12 1014.9 1014.8 0.0
25/09:00pm 19.2 16.2 7.6 47 6.0 SW 13 15 7 8 1014.6 1014.5 0.0
25/08:30pm 21.4 18.0 7.6 41 7.2 WSW 15 19 8 10 1014.2 1014.1 0.0
25/08:00pm 23.0 18.6 6.7 35 8.4 WSW 19 24 10 13 1014.0 1013.9 0.0
25/07:30pm 24.5 19.9 6.7 32 9.3 WSW 20 28 11 15 1013.6 1013.5 0.0
25/07:00pm 25.2 20.1 5.9 29 10.0 WSW 22 28 12 15 1013.3 1013.1 0.0
25/06:30pm 26.0 20.5 6.1 28 10.4 SW 24 32 13 17 1012.8 1012.7 0.0
25/06:00pm 26.9 21.4 5.8 26 11.0 WSW 24 33 13 18 1012.8 1012.7 0.0
25/05:30pm 27.0 22.1 5.3 25 11.2 SW 20 30 11 16 1012.7 1012.6 0.0
25/05:00pm 27.8 22.2 5.4 24 11.7 W 24 30 13 16 1012.5 1012.4 0.0
25/04:30pm 27.1 22.0 6.0 26 11.0 SW 22 32 12 17 1012.6 1012.5 0.0
25/04:00pm 28.5 23.2 6.6 25 11.7 SW 24 33 13 18 1012.6 1012.5 0.0
25/03:30pm 27.8 23.0 5.4 24 11.7 WSW 20 30 11 16 1012.8 1012.7 0.0
25/03:00pm 27.7 22.5 5.3 24 11.6 WSW 22 33 12 18 1013.0 1012.9 0.0
25/02:30pm 26.6 22.0 5.5 26 10.9 SW 19 28 10 15 1013.4 1013.3 0.0
25/02:00pm 26.7 22.5 5.6 26 10.9 W 17 26 9 14 1013.8 1013.7 0.0
25/01:30pm 25.7 21.8 7.3 31 9.8 WSW 17 24 9 13 1014.2 1014.1 0.0
25/01:00pm 25.0 23.0 7.2 32 9.4 WSW 7 15 4 8 1014.5 1014.4 0.0
25/12:30pm 23.6 21.6 8.8 39 8.0 W 9 17 5 9 1015.1 1015.0 0.0
25/12:00pm 21.8 19.4 8.7 43 7.0 S 11 17 6 9 1015.8 1015.7 0.0
25/11:30am 21.0 18.7 8.9 46 6.4 SSW 11 19 6 10 1016.0 1015.9 0.0
25/11:00am 20.1 18.0 9.7 51 5.6 SSW 11 15 6 8 1016.6 1016.5 0.0
25/10:30am 18.5 16.8 9.8 57 4.6 SSW 9 15 5 8 1016.5 1016.4 0.0
25/10:00am 16.9 14.8 9.8 63 3.7 S 11 15 6 8 1016.4 1016.3 0.0
25/09:30am 15.8 13.4 9.9 68 3.1 S 13 17 7 9 1016.5 1016.4 0.0
25/09:00am 14.9 12.1 9.9 72 2.6 SSE 15 22 8 12 1016.3 1016.2 0.0
25/08:30am 13.5 9.6 9.6 77 2.0 SSE 20 24 11 13 1015.8 1015.7 0.0
25/08:00am 12.1 9.1 9.3 83 1.4 SSE 15 20 8 11 1015.9 1015.8 0.0
25/07:30am 11.2 8.6 9.3 88 1.0 SSE 13 17 7 9 1015.6 1015.5 0.0
25/07:00am 10.4 8.0 8.7 89 0.8 SE 11 15 6 8 1015.4 1015.3 0.0
25/06:30am 10.1 7.2 8.2 88 0.9 SSE 13 15 7 8 1015.2 1015.1 0.0
25/06:00am 10.5 7.7 8.6 88 0.9 SSE 13 17 7 9 1015.2 1015.1 0.0
25/05:30am 10.6 7.8 8.5 87 1.0 SSE 13 15 7 8 1015.0 1014.9 0.0
25/05:00am 11.0 7.5 8.9 87 1.0 SSE 17 24 9 13 1014.9 1014.8 0.0
25/04:30am 11.4 7.4 9.1 86 1.2 SSE 20 24 11 13 1014.6 1014.5 0.0
25/04:00am 11.8 8.1 9.5 86 1.2 S 19 24 10 13 1014.5 1014.4 0.0
25/03:30am 12.0 9.5 9.6 85 1.2 S 13 17 7 9 1014.9 1014.8 0.0
25/03:00am 12.2 10.0 9.4 83 1.4 S 11 13 6 7 1015.1 1015.0 0.0
25/02:30am 13.0 9.8 10.0 82 1.6 S 17 20 9 11 1014.8 1014.7 0.0
25/02:00am 13.5 10.3 10.1 80 1.8 S 17 22 9 12 1015.1 1015.0 0.0
25/01:30am 14.2 11.1 10.2 77 2.1 S 17 22 9 12 1015.3 1015.2 0.0
25/01:00am 14.8 11.8 10.6 76 2.2 S 17 24 9 13 1015.5 1015.4 0.0
25/12:30am 15.4 12.5 11.0 75 2.4 S 17 19 9 10 1015.5 1015.4 0.0
25/12:00am 15.8 12.5 10.8 72 2.7 SSW 19 20 10 11 1015.5 1015.4 0.0
 
Date/Time
EDT
Temp
°C
App
Temp
°C
Dew
Point
Rel
Hum
%
Delta-T
°C
Wind Press
QNH
hPa
Press
MSL
hPa
Rain
since 9 am
mm
Dir
 
Spd
km/h
Gust
km/h
Spd
kts
Gust
kts
24/11:30pm 16.3 14.0 10.6 69 3.0 SSW 13 15 7 8 1015.4 1015.3 0.0
24/11:00pm 17.4 14.8 10.8 65 3.6 S 15 20 8 11 1015.3 1015.2 0.0
24/10:30pm 18.6 14.6 10.4 59 4.4 SSW 22 33 12 18 1015.3 1015.2 0.0
24/10:00pm 19.7 15.6 6.1 41 6.8 SW 17 20 9 11 1015.1 1015.0 0.0
24/09:30pm 21.1 17.7 4.2 33 8.2 WSW 11 13 6 7 1014.9 1014.8 0.0
24/09:00pm 22.3 18.8 3.4 29 9.1 W 11 13 6 7 1014.3 1014.2 0.0
24/08:30pm 23.8 20.2 3.2 26 10.0 W 11 15 6 8 1014.0 1013.9 0.0
24/08:00pm 24.9 19.7 2.4 23 10.9 W 19 22 10 12 1013.8 1013.7 0.0
24/07:30pm 26.8 22.0 2.7 21 11.9 WSW 17 24 9 13 1013.2 1013.0 0.0
24/07:00pm 28.3 22.7 3.2 20 12.6 WSW 22 28 12 15 1012.7 1012.6 0.0
24/06:30pm 29.1 22.6 2.4 18 13.3 W 26 32 14 17 1012.5 1012.4 0.0
24/06:00pm 29.7 24.3 4.4 20 13.1 WSW 22 35 12 19 1012.2 1012.1 0.0
24/05:30pm 29.9 23.6 3.8 19 13.4 WSW 26 41 14 22 1012.1 1012.0 0.0
24/05:00pm 30.0 24.9 3.9 19 13.4 W 20 30 11 16 1011.9 1011.8 0.0
24/04:30pm 29.5 23.7 4.2 20 13.0 W 24 33 13 18 1012.1 1012.0 0.0
24/04:00pm 28.9 23.3 3.7 20 12.8 W 22 39 12 21 1012.2 1012.1 0.0
24/03:30pm 28.7 21.1 2.8 19 12.9 W 32 41 17 22 1012.6 1012.5 0.0
24/03:00pm 28.9 22.6 5.7 23 12.2 W 28 44 15 24 1012.9 1012.8 0.0
24/02:30pm 28.0 21.6 5.0 23 11.9 W 28 41 15 22 1012.9 1012.8 0.0
24/02:25pm 27.8 21.6 6.0 25 11.5 W 28 46 15 25 1013.2 1013.0 0.0
24/02:00pm 28.1 21.7 5.0 23 12.0 W 28 37 15 20 1013.2 1013.0 0.0
24/01:30pm 27.3 19.7 3.1 21 12.1 W 32 39 17 21 1013.3 1013.1 0.0
24/01:00pm 26.2 20.3 4.1 24 11.1 WSW 24 35 13 19 1013.2 1013.0 0.0
24/12:30pm 24.9 18.5 5.2 28 10.0 WSW 28 39 15 21 1013.7 1013.6 0.0
24/12:00pm 24.5 19.0 5.8 30 9.6 W 24 33 13 18 1013.9 1013.8 0.0
24/11:30am 23.8 18.1 6.6 33 8.9 W 26 33 14 18 1014.0 1013.9 0.0
24/11:00am 22.8 17.2 5.3 32 8.8 WNW 24 32 13 17 1014.0 1013.9 0.0
24/10:30am 21.2 17.8 10.7 51 5.8 WNW 19 28 10 15 1014.1 1014.0 0.0
24/10:00am 19.4 17.4 11.4 60 4.4 WNW 13 17 7 9 1013.7 1013.6 0.0
24/09:30am 17.9 16.8 12.1 69 3.2 NW 9 11 5 6 1013.5 1013.4 0.0
24/09:00am 15.3 15.7 12.6 84 1.5 WNW 2 6 1 3 1013.4 1013.3 0.0
24/08:30am 13.4 12.4 10.9 85 1.3 WNW 7 9 4 5 1013.3 1013.1 0.0
24/08:00am 12.8 12.0 10.9 88 1.0 WNW 6 6 3 3 1012.7 1012.6 0.0
24/07:30am 12.2 12.3 10.3 88 1.0 CALM 0 0 0 0 1012.6 1012.5 0.0
24/07:00am 11.7 10.9 9.8 88 1.0 WNW 4 6 2 3 1012.2 1012.1 0.0
24/06:30am 11.6 10.4 9.5 87 1.1 WNW 6 9 3 5 1012.3 1012.2 0.0
24/06:00am 12.0 10.6 9.7 86 1.2 NNW 7 9 4 5 1012.1 1012.0 0.0
24/05:30am 12.2 10.4 9.6 84 1.3 NW 9 11 5 6 1012.0 1011.9 0.0
24/05:00am 13.1 12.4 10.1 82 1.6 NW 4 7 2 4 1011.9 1011.8 0.0
24/04:30am 13.7 12.8 10.5 81 1.7 WNW 6 7 3 4 1012.0 1011.9 0.0
24/04:00am 13.9 12.7 10.3 79 1.9 WNW 7 9 4 5 1012.2 1012.1 0.0
24/03:30am 14.7 14.9 10.7 77 2.1 CALM 0 0 0 0 1012.2 1012.1 0.0
24/03:00am 15.5 14.8 11.3 76 2.3 W 6 7 3 4 1012.5 1012.4 0.0
24/02:30am 15.7 14.8 11.3 75 2.4 W 7 9 4 5 1012.7 1012.6 0.0
24/02:00am 15.7 15.2 10.9 73 2.6 WNW 4 9 2 5 1012.7 1012.6 0.0
24/01:30am 16.3 15.3 11.0 71 2.9 NE 7 15 4 8 1013.3 1013.1 0.0
24/01:00am 17.2 16.6 11.7 70 3.0 W 6 7 3 4 1013.4 1013.3 0.0
24/12:30am 18.0 17.4 11.8 67 3.4 SSW 6 7 3 4 1013.5 1013.4 0.0
24/12:00am 18.2 17.6 11.7 66 3.6 SSW 6 6 3 3 1013.5 1013.4 0.0
 
Date/Time
EDT
Temp
°C
App
Temp
°C
Dew
Point
Rel
Hum
%
Delta-T
°C
Wind Press
QNH
hPa
Press
MSL
hPa
Rain
since 9 am
mm
Dir
 
Spd
km/h
Gust
km/h
Spd
kts
Gust
kts
23/11:30pm 18.8 18.1 12.1 65 3.7 SSW 7 7 4 4 1013.6 1013.5 0.0
23/11:00pm 19.0 17.5 11.8 63 4.0 SSW 11 13 6 7 1013.8 1013.7 0.0
23/10:30pm 20.1 18.2 11.8 59 4.6 SSW 13 15 7 8 1013.8 1013.7 0.0
23/10:00pm 21.5 19.4 12.4 56 5.2 S 15 17 8 9 1013.4 1013.3 0.0
23/09:30pm 22.3 19.7 12.0 52 5.8 S 17 20 9 11 1013.4 1013.3 0.0
23/09:00pm 23.3 20.5 11.4 47 6.7 S 17 24 9 13 1013.0 1012.9 0.0
23/08:30pm 24.7 21.5 11.3 43 7.6 S 19 26 10 14 1012.3 1012.2 0.0
23/08:00pm 24.5 22.6 8.9 37 8.5 E 9 24 5 13 1012.3 1012.2 0.0
23/07:30pm 28.2 26.3 9.0 30 10.6 E 9 11 5 6 1011.9 1011.8 0.0
23/07:00pm 28.8 26.9 9.0 29 11.0 SE 9 13 5 7 1011.9 1011.8 0.0
23/06:30pm 30.1 28.2 9.1 27 11.8 E 9 15 5 8 1011.8 1011.7 0.0
23/06:00pm 30.2 28.3 9.1 27 11.8 NE 9 17 5 9 1011.7 1011.6 0.0
23/05:30pm 30.5 29.3 9.4 27 11.9 S 6 11 3 6 1011.9 1011.8 0.0
23/05:00pm 30.8 28.9 9.1 26 12.2 SE 9 24 5 13 1012.0 1011.9 0.0
23/04:30pm 30.2 27.4 8.6 26 12.0 S 13 20 7 11 1012.3 1012.2 0.0

Other Formats:

Comma delimited format used in spreadsheet applications
http://www.bom.gov.au/fwo/IDV60801/IDV60801.94827.axf

JavaScript Object Notation format (JSON) in row-major order
http://www.bom.gov.au/fwo/IDV60801/IDV60801.94827.json